Terminal Aerodrome Forecast
Issued by NWS

Home | Current Version | Previous Version | Text Only | Print | Product List | Glossary On
Versions: 1 2 3 4 5 6 7 8 9 10 11 12 13 14 15 16
000
FTUS44 KEPZ 131700
TAFDMN
TAF
KDMN 131740Z 1318/1418 10009KT P6SM FEW070 BKN250
     FM132200 11011KT P6SM VCTS SCT080CB SCT140 SCT250
     FM140300 06008KT P6SM FEW080 SCT140 BKN250
     FM140600 03007KT P6SM VCTS SCT070CB SCT140 BKN250
     FM141000 08005KT P6SM SCT100 SCT250=

USA.gov is the U.S. government's official web portal to all federal, state and local government web resources and services.